createdAt,value
2018-01-12T00:00:42.447Z,81.3
2018-01-12T00:01:42.173Z,81.3
2018-01-12T00:02:42.182Z,81.12
2018-01-12T00:03:42.472Z,81.12
2018-01-12T00:04:42.515Z,81.02
2018-01-12T00:05:42.511Z,81.21
2018-01-12T00:06:42.540Z,81.02
2018-01-12T00:07:42.552Z,81.12
2018-01-12T00:08:42.565Z,80.93
2018-01-12T00:09:42.562Z,81.12
2018-01-12T00:10:42.589Z,81.02
2018-01-12T00:11:42.321Z,80.83
2018-01-12T00:12:42.621Z,81.12
2018-01-12T00:13:42.599Z,81.12
2018-01-12T00:14:42.693Z,81.12
2018-01-12T00:15:42.653Z,81.12
2018-01-12T00:16:42.374Z,81.3
2018-01-12T00:17:42.397Z,81.3
2018-01-12T00:18:42.663Z,81.49
2018-01-12T00:19:42.666Z,81.21
2018-01-12T00:20:42.712Z,81.21
2018-01-12T00:21:42.701Z,81.4
2018-01-12T00:22:42.713Z,81.3
2018-01-12T00:23:42.460Z,81.12
2018-01-12T00:24:42.736Z,81.12
2018-01-12T00:25:42.784Z,81.21
2018-01-12T00:26:42.754Z,81.12
2018-01-12T00:27:42.761Z,81.3
2018-01-12T00:28:42.789Z,81.3
2018-01-12T00:29:42.797Z,81.02
2018-01-12T00:30:42.534Z,81.02
2018-01-12T00:31:42.568Z,81.12
2018-01-12T00:32:42.824Z,81.12
2018-01-12T00:33:42.849Z,81.3
2018-01-12T00:34:42.860Z,81.3
2018-01-12T00:35:42.611Z,80.74
2018-01-12T00:36:42.909Z,81.02
2018-01-12T00:37:42.918Z,81.12
2018-01-12T00:38:42.939Z,81.4
2018-01-12T00:39:42.919Z,81.02
2018-01-12T00:40:42.954Z,81.02
2018-01-12T00:41:42.975Z,81.12
2018-01-12T00:42:42.701Z,81.12
2018-01-12T00:43:42.990Z,81.12
2018-01-12T00:44:42.704Z,81.12
2018-01-12T00:45:42.981Z,80.83
2018-01-12T00:46:42.994Z,81.02
2018-01-12T00:47:43.047Z,81.3
2018-01-12T00:48:43.028Z,81.12
2018-01-12T00:49:43.064Z,81.3
2018-01-12T00:50:43.073Z,81.12
2018-01-12T00:51:43.063Z,81.12
2018-01-12T00:52:43.065Z,81.12
2018-01-12T00:53:43.109Z,81.02
2018-01-12T00:54:43.099Z,81.12
2018-01-12T00:55:43.141Z,80.93
2018-01-12T00:56:43.125Z,81.12
2018-01-12T00:57:43.128Z,81.21
2018-01-12T00:58:43.150Z,81.12
2018-01-12T00:59:43.168Z,81.12
2018-01-12T01:00:43.196Z,81.12
2018-01-12T01:01:43.215Z,81.3
2018-01-12T01:02:42.919Z,81.12
2018-01-12T01:03:42.932Z,81.12
2018-01-12T01:04:43.209Z,81.12
2018-01-12T01:05:43.265Z,81.12
2018-01-12T01:06:43.278Z,81.12
2018-01-12T01:07:42.980Z,81.02
2018-01-12T01:08:43.029Z,81.21
2018-01-12T01:09:43.318Z,81.12
2018-01-12T01:10:43.293Z,81.12
2018-01-12T01:11:43.029Z,81.12
2018-01-12T01:12:43.052Z,81.21
2018-01-12T01:13:43.382Z,81.3
2018-01-12T01:14:43.329Z,81.12
2018-01-12T01:15:43.373Z,81.21
2018-01-12T01:16:43.354Z,81.3
2018-01-12T01:17:43.370Z,81.12
2018-01-12T01:18:43.176Z,80.93
2018-01-12T01:19:43.421Z,81.02
2018-01-12T01:20:43.447Z,81.02
2018-01-12T01:21:43.173Z,81.07
2018-01-12T01:22:43.436Z,81.12
2018-01-12T01:23:43.469Z,81.12
2018-01-12T01:24:43.175Z,81.12
2018-01-12T01:25:43.186Z,81.3
2018-01-12T01:26:43.521Z,81.12
2018-01-12T01:27:43.242Z,81.07
2018-01-12T01:28:43.510Z,80.88
2018-01-12T01:29:43.544Z,80.93
2018-01-12T01:30:43.525Z,81.26
2018-01-12T01:31:43.543Z,81.12
2018-01-12T01:32:43.270Z,80.88
2018-01-12T01:33:43.341Z,81.21
2018-01-12T01:34:43.294Z,81.02
2018-01-12T01:35:43.591Z,81.07
2018-01-12T01:36:43.605Z,81.26
2018-01-12T01:37:43.653Z,81.55
2018-01-12T01:38:43.661Z,81.45
2018-01-12T01:39:43.639Z,81.36
2018-01-12T01:40:43.396Z,81.36
2018-01-12T01:41:43.693Z,81.36
2018-01-12T01:42:43.701Z,81.45
2018-01-12T01:43:43.431Z,81.17
2018-01-12T01:44:43.700Z,81.55
2018-01-12T01:45:43.445Z,81.55
2018-01-12T01:46:43.742Z,81.26
2018-01-12T01:47:43.728Z,81.26
2018-01-12T01:48:43.459Z,81.36
2018-01-12T01:49:43.789Z,81.17
2018-01-12T01:50:43.802Z,81.07
2018-01-12T01:51:43.775Z,81.45
2018-01-12T01:52:43.790Z,81.45
2018-01-12T01:53:43.800Z,81.26
2018-01-12T01:54:43.849Z,81.36
2018-01-12T01:55:43.860Z,81.26
2018-01-12T01:56:43.553Z,81.65
2018-01-12T01:57:43.858Z,81.17
2018-01-12T01:58:43.862Z,81.74
2018-01-12T01:59:43.872Z,81.17
2018-01-12T02:00:43.613Z,81.74
2018-01-12T02:01:43.935Z,81.45
2018-01-12T02:02:43.628Z,81.45
2018-01-12T02:03:43.639Z,81.45
2018-01-12T02:04:43.976Z,81.07
2018-01-12T02:05:43.941Z,81.45
2018-01-12T02:06:43.989Z,81.36
2018-01-12T02:07:44.001Z,81.45
2018-01-12T02:08:43.979Z,81.36
2018-01-12T02:09:44.187Z,81.07
2018-01-12T02:10:43.720Z,81.07
2018-01-12T02:11:44.039Z,80.88
2018-01-12T02:12:44.033Z,80.88
2018-01-12T02:13:44.072Z,81.17
2018-01-12T02:14:44.053Z,80.98
2018-01-12T02:15:44.073Z,80.88
2018-01-12T02:16:44.109Z,81.07
2018-01-12T02:17:44.078Z,81.17
2018-01-12T02:18:44.122Z,81.17
2018-01-12T02:19:44.144Z,81.17
2018-01-12T02:20:43.836Z,81.17
2018-01-12T02:21:44.157Z,81.07
2018-01-12T02:22:44.136Z,81.26
2018-01-12T02:23:44.159Z,81.07
2018-01-12T02:24:44.222Z,81.17
2018-01-12T02:25:44.182Z,81.17
2018-01-12T02:26:44.185Z,81.17
2018-01-12T02:27:44.206Z,81.07
2018-01-12T02:28:43.964Z,81.17
2018-01-12T02:29:44.229Z,81.17
2018-01-12T02:30:44.237Z,80.88
2018-01-12T02:31:44.283Z,80.88
2018-01-12T02:32:44.298Z,80.88
2018-01-12T02:33:44.319Z,80.98
2018-01-12T02:34:44.294Z,80.88
2018-01-12T02:35:44.338Z,81.17
2018-01-12T02:36:44.335Z,81.07
2018-01-12T02:37:44.355Z,81.07
2018-01-12T02:38:44.362Z,80.98
2018-01-12T02:39:44.369Z,81.07
2018-01-12T02:40:44.108Z,81.07
2018-01-12T02:41:44.360Z,81.07
2018-01-12T02:42:44.127Z,80.88
2018-01-12T02:43:44.388Z,81.07
2018-01-12T02:44:44.120Z,80.88
2018-01-12T02:45:44.421Z,81.07
2018-01-12T02:46:44.432Z,80.88
2018-01-12T02:47:44.157Z,81.07
2018-01-12T02:48:44.490Z,81.26
2018-01-12T02:49:44.485Z,80.88
2018-01-12T02:50:44.513Z,81.17
2018-01-12T02:51:44.523Z,81.07
2018-01-12T02:52:44.525Z,80.88
2018-01-12T02:53:44.224Z,81.17
2018-01-12T02:54:44.524Z,81.07
2018-01-12T02:55:44.274Z,81.07
2018-01-12T02:56:44.266Z,80.88
2018-01-12T02:57:44.595Z,81.26
2018-01-12T02:58:44.567Z,81.07
2018-01-12T02:59:44.614Z,81.07
2018-01-12T03:00:44.624Z,81.36
2018-01-12T03:01:44.593Z,80.79
2018-01-12T03:02:44.618Z,81.26
2018-01-12T03:03:44.664Z,81.36
2018-01-12T03:04:44.673Z,81.26
2018-01-12T03:05:44.676Z,81.26
2018-01-12T03:06:44.684Z,81.26
2018-01-12T03:07:44.695Z,81.17
2018-01-12T03:08:44.710Z,80.98
2018-01-12T03:09:44.719Z,80.98
2018-01-12T03:10:44.455Z,80.88
2018-01-12T03:11:44.743Z,81.17
2018-01-12T03:12:44.754Z,81.07
2018-01-12T03:13:44.461Z,80.88
2018-01-12T03:14:44.470Z,80.79
2018-01-12T03:15:44.800Z,81.07
2018-01-12T03:16:44.812Z,80.98
2018-01-12T03:17:44.793Z,80.98
2018-01-12T03:18:44.538Z,80.98
2018-01-12T03:19:44.550Z,80.98
2018-01-12T03:20:44.829Z,80.98
2018-01-12T03:21:44.862Z,81.17
2018-01-12T03:22:44.880Z,80.88
2018-01-12T03:23:44.884Z,80.79
2018-01-12T03:24:44.873Z,80.79
2018-01-12T03:25:44.927Z,80.79
2018-01-12T03:26:44.624Z,81.07
2018-01-12T03:27:44.912Z,80.69
2018-01-12T03:28:44.940Z,80.98
2018-01-12T03:29:44.953Z,80.79
2018-01-12T03:30:44.986Z,80.79
2018-01-12T03:31:44.990Z,80.69
2018-01-12T03:32:44.698Z,80.69
2018-01-12T03:33:44.725Z,80.69
2018-01-12T03:34:44.713Z,80.79
2018-01-12T03:35:45.023Z,80.6
2018-01-12T03:36:44.760Z,80.6
2018-01-12T03:37:45.014Z,80.98
2018-01-12T03:38:44.761Z,80.69
2018-01-12T03:39:45.083Z,80.69
2018-01-12T03:40:45.051Z,80.6
2018-01-12T03:41:44.817Z,80.69
2018-01-12T03:42:44.797Z,80.69
2018-01-12T03:43:45.117Z,80.79
2018-01-12T03:44:45.095Z,80.98
2018-01-12T03:45:45.110Z,80.98
2018-01-12T03:46:45.130Z,80.98
2018-01-12T03:47:45.205Z,80.98
2018-01-12T03:48:45.176Z,80.98
2018-01-12T03:49:44.910Z,81.17
2018-01-12T03:50:45.216Z,80.98
2018-01-12T03:51:44.913Z,80.88
2018-01-12T03:52:45.198Z,80.88
2018-01-12T03:53:45.211Z,80.69
2018-01-12T03:54:45.244Z,80.79
2018-01-12T03:55:44.958Z,80.88
2018-01-12T03:56:45.270Z,80.69
2018-01-12T03:57:45.247Z,80.88
2018-01-12T03:58:45.270Z,81.26
2018-01-12T03:59:45.302Z,80.88
2018-01-12T04:00:45.345Z,80.88
2018-01-12T04:01:45.374Z,80.79
2018-01-12T04:02:45.309Z,80.79
2018-01-12T04:03:45.325Z,80.69
2018-01-12T04:04:45.363Z,80.88
2018-01-12T04:05:45.379Z,80.88
2018-01-12T04:06:45.387Z,81.07
2018-01-12T04:07:45.400Z,81.07
2018-01-12T04:08:45.446Z,81.07
2018-01-12T04:09:45.429Z,81.17
2018-01-12T04:10:45.136Z,80.98
2018-01-12T04:11:45.444Z,80.98
2018-01-12T04:12:45.458Z,81.07
2018-01-12T04:13:45.444Z,80.98
2018-01-12T04:14:45.458Z,80.98
2018-01-12T04:15:45.470Z,80.88
2018-01-12T04:16:45.513Z,80.98
2018-01-12T04:17:45.510Z,80.98
2018-01-12T04:18:45.242Z,81.17
2018-01-12T04:19:45.504Z,81.07
2018-01-12T04:20:45.551Z,81.17
2018-01-12T04:21:45.528Z,81.07
2018-01-12T04:22:45.540Z,81.07
2018-01-12T04:23:45.583Z,80.98
2018-01-12T04:24:45.566Z,81.07
2018-01-12T04:25:45.574Z,81.07
2018-01-12T04:26:45.629Z,80.98
2018-01-12T04:27:45.638Z,81.07
2018-01-12T04:28:45.653Z,80.98
2018-01-12T04:29:45.630Z,80.98
2018-01-12T04:30:45.665Z,81.07
2018-01-12T04:31:45.382Z,80.98
2018-01-12T04:32:45.687Z,81.36
2018-01-12T04:33:45.674Z,80.98
2018-01-12T04:34:45.693Z,81.17
2018-01-12T04:35:45.700Z,80.98
2018-01-12T04:36:45.720Z,81.07
2018-01-12T04:37:45.460Z,81.07
2018-01-12T04:38:45.738Z,81.07
2018-01-12T04:39:45.767Z,80.88
2018-01-12T04:40:45.493Z,80.98
2018-01-12T04:41:45.496Z,80.98
2018-01-12T04:42:45.799Z,80.88
2018-01-12T04:43:45.825Z,80.88
2018-01-12T04:44:45.837Z,80.88
2018-01-12T04:45:45.841Z,80.88
2018-01-12T04:46:45.567Z,81.07
2018-01-12T04:47:45.836Z,80.98
2018-01-12T04:48:46.120Z,80.98
2018-01-12T04:49:45.863Z,80.98
2018-01-12T04:50:46.068Z,80.98
2018-01-12T04:51:45.939Z,81.17
2018-01-12T04:52:45.901Z,80.98
2018-01-12T04:53:45.903Z,80.6
2018-01-12T04:54:45.943Z,80.79
2018-01-12T04:55:45.967Z,80.6
2018-01-12T04:56:45.983Z,80.69
2018-01-12T04:57:45.685Z,80.88
2018-01-12T04:58:45.989Z,80.6
2018-01-12T04:59:45.969Z,80.88
2018-01-12T05:00:45.992Z,80.79
2018-01-12T05:01:45.994Z,80.79
2018-01-12T05:02:46.015Z,80.6
2018-01-12T05:03:46.053Z,80.6
2018-01-12T05:04:46.040Z,80.98
2018-01-12T05:05:46.087Z,80.6
2018-01-12T05:06:45.784Z,80.69
2018-01-12T05:07:45.796Z,80.6
2018-01-12T05:08:46.114Z,81.07
2018-01-12T05:09:46.091Z,81.07
2018-01-12T05:10:46.102Z,80.79
2018-01-12T05:11:46.152Z,80.98
2018-01-12T05:12:46.221Z,80.79
2018-01-12T05:13:46.169Z,81.26
2018-01-12T05:14:46.176Z,80.98
2018-01-12T05:15:46.167Z,80.88
2018-01-12T05:16:46.209Z,80.79
2018-01-12T05:17:46.177Z,80.88
2018-01-12T05:18:46.241Z,80.98
2018-01-12T05:19:46.243Z,80.88
2018-01-12T05:20:46.221Z,80.98
2018-01-12T05:21:45.948Z,80.98
2018-01-12T05:22:45.971Z,80.98
2018-01-12T05:23:46.290Z,81.07
2018-01-12T05:24:46.271Z,80.98
2018-01-12T05:25:46.431Z,81.07
2018-01-12T05:26:46.030Z,80.98
2018-01-12T05:27:46.056Z,80.98
2018-01-12T05:28:46.346Z,81.07
2018-01-12T05:29:46.359Z,80.98
2018-01-12T05:30:46.389Z,81.17
2018-01-12T05:31:46.342Z,80.88
2018-01-12T05:32:46.362Z,81.17
2018-01-12T05:33:46.376Z,81.26
2018-01-12T05:34:46.408Z,81.07
2018-01-12T05:35:46.418Z,81.07
2018-01-12T05:36:46.410Z,81.07
2018-01-12T05:37:46.429Z,81.07
2018-01-12T05:38:46.455Z,80.98
2018-01-12T05:39:46.435Z,80.98
2018-01-12T05:40:46.482Z,80.98
2018-01-12T05:41:46.465Z,81.07
2018-01-12T05:42:46.512Z,81.17
2018-01-12T05:43:46.236Z,81.17
2018-01-12T05:44:46.537Z,81.07
2018-01-12T05:45:46.259Z,80.98
2018-01-12T05:46:46.526Z,81.17
2018-01-12T05:47:46.526Z,81.07
2018-01-12T05:48:46.570Z,81.17
2018-01-12T05:49:46.295Z,80.98
2018-01-12T05:50:46.712Z,80.98
2018-01-12T05:51:46.351Z,80.98
2018-01-12T05:52:46.588Z,81.07
2018-01-12T05:53:46.351Z,81.36
2018-01-12T05:54:46.641Z,81.07
2018-01-12T05:55:46.661Z,80.98
2018-01-12T05:56:46.641Z,81.17
2018-01-12T05:57:46.366Z,81.17
2018-01-12T05:58:46.745Z,81.07
2018-01-12T05:59:46.417Z,81.07
2018-01-12T06:00:46.693Z,80.98
2018-01-12T06:01:46.427Z,81.07
2018-01-12T06:02:46.427Z,80.98
2018-01-12T06:03:46.471Z,80.88
2018-01-12T06:04:46.735Z,80.98
2018-01-12T06:05:46.771Z,81.17
2018-01-12T06:06:46.758Z,81.17
2018-01-12T06:07:46.513Z,81.17
2018-01-12T06:08:46.775Z,81.07
2018-01-12T06:09:46.529Z,81.07
2018-01-12T06:10:46.804Z,81.17
2018-01-12T06:11:46.561Z,80.88
2018-01-12T06:12:46.831Z,81.26
2018-01-12T06:13:46.573Z,80.88
2018-01-12T06:14:46.856Z,81.07
2018-01-12T06:15:46.883Z,81.07
2018-01-12T06:16:46.907Z,81.07
2018-01-12T06:17:46.922Z,80.98
2018-01-12T06:18:46.633Z,81.17
2018-01-12T06:19:46.645Z,81.07
2018-01-12T06:20:46.976Z,81.07
2018-01-12T06:21:46.658Z,81.07
2018-01-12T06:22:46.975Z,81.17
2018-01-12T06:23:47.243Z,81.17
2018-01-12T06:24:47.004Z,81.07
2018-01-12T06:25:46.977Z,81.07
2018-01-12T06:26:47.023Z,81.26
2018-01-12T06:27:46.990Z,81.26
2018-01-12T06:28:47.014Z,81.07
2018-01-12T06:29:47.025Z,81.17
2018-01-12T06:30:47.040Z,81.26
2018-01-12T06:31:47.219Z,81.17
2018-01-12T06:32:47.061Z,81.17
2018-01-12T06:33:47.104Z,80.98
2018-01-12T06:34:47.072Z,81.07
2018-01-12T06:35:47.125Z,81.17
2018-01-12T06:36:47.206Z,80.98
2018-01-12T06:37:46.853Z,81.07
2018-01-12T06:38:46.875Z,81.07
2018-01-12T06:39:47.137Z,80.98
2018-01-12T06:40:47.183Z,80.98
2018-01-12T06:41:47.245Z,81.26
2018-01-12T06:42:47.200Z,81.07
2018-01-12T06:43:47.210Z,81.26
2018-01-12T06:44:47.220Z,81.17
2018-01-12T06:45:47.252Z,81.07
2018-01-12T06:46:47.221Z,81.26
2018-01-12T06:47:47.223Z,81.07
2018-01-12T06:48:47.248Z,81.36
2018-01-12T06:49:46.971Z,81.17
2018-01-12T06:50:46.982Z,81.12
2018-01-12T06:51:47.282Z,81.17
2018-01-12T06:52:47.293Z,81.26
2018-01-12T06:53:47.332Z,81.17
2018-01-12T06:54:47.345Z,81.17
2018-01-12T06:55:47.354Z,81.26
2018-01-12T06:56:47.327Z,81.17
2018-01-12T06:57:47.350Z,81.36
2018-01-12T06:58:47.351Z,81.07
2018-01-12T06:59:47.098Z,81.07
2018-01-12T07:00:47.405Z,81.07
2018-01-12T07:01:47.115Z,81.17
2018-01-12T07:02:47.438Z,81.17
2018-01-12T07:03:47.425Z,81.17
2018-01-12T07:04:47.462Z,81.26
2018-01-12T07:05:47.468Z,81.17
2018-01-12T07:06:47.178Z,81.17
2018-01-12T07:07:47.469Z,81.07
2018-01-12T07:08:47.203Z,81.17
2018-01-12T07:09:47.488Z,81.07
2018-01-12T07:10:47.528Z,81.07
2018-01-12T07:11:47.505Z,80.88
2018-01-12T07:12:47.546Z,81.26
2018-01-12T07:13:47.562Z,81.17
2018-01-12T07:14:47.569Z,81.12
2018-01-12T07:15:47.582Z,81.21
2018-01-12T07:16:47.591Z,81.17
2018-01-12T07:17:47.572Z,81.17
2018-01-12T07:18:47.618Z,81.17
2018-01-12T07:19:47.350Z,81.17
2018-01-12T07:20:47.649Z,81.26
2018-01-12T07:21:47.621Z,81.07
2018-01-12T07:22:47.662Z,81.21
2018-01-12T07:23:47.387Z,80.88
2018-01-12T07:24:47.688Z,81.07
2018-01-12T07:25:47.404Z,81.12
2018-01-12T07:26:47.441Z,81.12
2018-01-12T07:27:47.709Z,81.17
2018-01-12T07:28:47.700Z,81.17
2018-01-12T07:29:47.732Z,81.17
2018-01-12T07:30:47.767Z,80.88
2018-01-12T07:31:47.907Z,80.88
2018-01-12T07:32:47.744Z,81.02
2018-01-12T07:33:47.514Z,80.88
2018-01-12T07:34:47.811Z,80.88
2018-01-12T07:35:47.812Z,81.17
2018-01-12T07:36:47.834Z,81.07
2018-01-12T07:37:47.848Z,81.07
2018-01-12T07:38:47.857Z,80.98
2018-01-12T07:39:47.889Z,81.07
2018-01-12T07:40:47.849Z,81.02
2018-01-12T07:41:47.890Z,81.07
2018-01-12T07:42:47.871Z,80.98
2018-01-12T07:43:47.914Z,81.26
2018-01-12T07:44:47.903Z,80.88
2018-01-12T07:45:47.622Z,81.45
2018-01-12T07:46:47.908Z,81.59
2018-01-12T07:47:47.667Z,81.78
2018-01-12T07:48:47.933Z,81.59
2018-01-12T07:49:47.943Z,81.3
2018-01-12T07:50:47.960Z,81.78
2018-01-12T07:51:47.979Z,81.87
2018-01-12T07:52:47.726Z,81.4
2018-01-12T07:53:48.001Z,81.59
2018-01-12T07:54:48.033Z,81.49
2018-01-12T07:55:47.775Z,81.68
2018-01-12T07:56:47.771Z,81.49
2018-01-12T07:57:48.037Z,81.49
2018-01-12T07:58:47.774Z,81.87
2018-01-12T07:59:48.099Z,81.87
2018-01-12T08:00:48.128Z,81.21
2018-01-12T08:01:48.119Z,81.68
2018-01-12T08:02:48.140Z,81.3
2018-01-12T08:03:48.151Z,81.68
2018-01-12T08:04:47.853Z,81.59
2018-01-12T08:05:47.875Z,81.12
2018-01-12T08:06:48.179Z,81.21
2018-01-12T08:07:47.926Z,81.02
2018-01-12T08:08:48.305Z,81.21
2018-01-12T08:09:47.936Z,81.3
2018-01-12T08:10:48.188Z,81.02
2018-01-12T08:11:48.246Z,81.12
2018-01-12T08:12:48.311Z,81.12
2018-01-12T08:13:48.265Z,81.12
2018-01-12T08:14:48.282Z,80.93
2018-01-12T08:15:48.255Z,81.21
2018-01-12T08:16:48.300Z,81.21
2018-01-12T08:17:48.023Z,81.21
2018-01-12T08:18:48.279Z,81.21
2018-01-12T08:19:48.339Z,81.02
2018-01-12T08:20:48.050Z,81.12
2018-01-12T08:21:48.360Z,80.64
2018-01-12T08:22:48.434Z,81.12
2018-01-12T08:23:48.385Z,81.12
2018-01-12T08:24:48.384Z,81.02
2018-01-12T08:25:48.365Z,81.3
2018-01-12T08:26:48.391Z,81.12
2018-01-12T08:27:48.389Z,81.12
2018-01-12T08:28:48.157Z,81.02
2018-01-12T08:29:48.242Z,81.4
2018-01-12T08:30:48.511Z,81.49
2018-01-12T08:31:48.447Z,81.3
2018-01-12T08:32:48.448Z,81.02
2018-01-12T08:33:48.213Z,81.21
2018-01-12T08:34:48.214Z,81.12
2018-01-12T08:35:48.513Z,81.3
2018-01-12T08:36:48.257Z,81.12
2018-01-12T08:37:48.514Z,81.12
2018-01-12T08:38:48.551Z,81.02
2018-01-12T08:39:48.546Z,81.21
2018-01-12T08:40:48.277Z,81.12
2018-01-12T08:41:48.586Z,81.21
2018-01-12T08:42:48.298Z,80.93
2018-01-12T08:43:48.630Z,81.12
2018-01-12T08:44:48.327Z,81.12
2018-01-12T08:45:48.336Z,81.02
2018-01-12T08:46:48.611Z,81.12
2018-01-12T08:47:48.781Z,81.12
2018-01-12T08:48:48.363Z,80.93
2018-01-12T08:49:48.404Z,80.93
2018-01-12T08:50:48.393Z,80.93
2018-01-12T08:51:48.673Z,80.93
2018-01-12T08:52:48.458Z,80.93
2018-01-12T08:53:48.734Z,81.12
2018-01-12T08:54:48.748Z,81.12
2018-01-12T08:55:48.722Z,81.21
2018-01-12T08:56:48.455Z,81.3
2018-01-12T08:57:48.465Z,81.3
2018-01-12T08:58:48.486Z,81.3
2018-01-12T08:59:48.526Z,81.12
2018-01-12T09:00:48.780Z,81.12
2018-01-12T09:01:48.846Z,81.12
2018-01-12T09:02:48.832Z,81.12
2018-01-12T09:03:48.554Z,81.12
2018-01-12T09:04:48.870Z,81.02
2018-01-12T09:05:48.570Z,81.12
2018-01-12T09:06:48.605Z,81.12
2018-01-12T09:07:48.597Z,80.93
2018-01-12T09:08:48.609Z,81.12
2018-01-12T09:09:48.918Z,80.93
2018-01-12T09:10:48.620Z,81.02
2018-01-12T09:11:48.657Z,80.83
2018-01-12T09:12:48.964Z,81.12
2018-01-12T09:13:48.687Z,80.83
2018-01-12T09:14:48.668Z,81.02
2018-01-12T09:15:48.954Z,80.64
2018-01-12T09:16:48.979Z,80.74
2018-01-12T09:17:49.015Z,81.02
2018-01-12T09:18:49.134Z,80.55
2018-01-12T09:19:49.046Z,80.64
2018-01-12T09:20:49.492Z,80.83
2018-01-12T09:21:48.765Z,80.93
2018-01-12T09:22:49.089Z,80.93
2018-01-12T09:23:48.786Z,81.02
2018-01-12T09:24:49.118Z,80.83
2018-01-12T09:25:48.811Z,80.64
2018-01-12T09:26:49.119Z,81.12
2018-01-12T09:27:48.823Z,81.02
2018-01-12T09:28:49.143Z,80.74
2018-01-12T09:29:49.133Z,80.74
2018-01-12T09:30:48.880Z,81.02
2018-01-12T09:31:49.177Z,80.74
2018-01-12T09:32:49.161Z,80.74
2018-01-12T09:33:49.211Z,80.74
2018-01-12T09:34:49.187Z,80.83
2018-01-12T09:35:49.235Z,81.02
2018-01-12T09:36:48.931Z,80.74
2018-01-12T09:37:48.964Z,80.74
2018-01-12T09:38:48.989Z,80.93
2018-01-12T09:39:49.254Z,81.02
2018-01-12T09:40:49.255Z,80.83
2018-01-12T09:41:49.269Z,80.64
2018-01-12T09:42:49.033Z,80.64
2018-01-12T09:43:49.016Z,80.74
2018-01-12T09:44:49.048Z,80.55
2018-01-12T09:45:49.061Z,80.74
2018-01-12T09:46:49.061Z,80.45
2018-01-12T09:47:49.337Z,80.74
2018-01-12T09:48:49.353Z,80.55
2018-01-12T09:49:49.108Z,80.74
2018-01-12T09:50:49.129Z,80.16
2018-01-12T09:51:49.398Z,80.64
2018-01-12T09:52:49.413Z,80.68
2018-01-12T09:53:49.452Z,80.64
2018-01-12T09:54:49.169Z,80.58
2018-01-12T09:55:49.437Z,80.64
2018-01-12T09:56:49.482Z,80.74
2018-01-12T09:57:49.218Z,80.93
2018-01-12T09:58:49.202Z,80.4
2018-01-12T09:59:49.483Z,80.58
2018-01-12T10:00:49.539Z,80.83
2018-01-12T10:01:49.506Z,80.83
2018-01-12T10:02:49.519Z,80.87
2018-01-12T10:03:49.267Z,80.55
2018-01-12T10:04:49.618Z,80.58
2018-01-12T10:05:49.292Z,80.11
2018-01-12T10:06:49.303Z,80.26
2018-01-12T10:07:49.316Z,80.68
2018-01-12T10:08:49.377Z,80.26
2018-01-12T10:09:49.352Z,80.58
2018-01-12T10:10:49.380Z,80.4
2018-01-12T10:11:49.356Z,80.58
2018-01-12T10:12:49.401Z,80.58
2018-01-12T10:13:49.390Z,80.3
2018-01-12T10:14:49.391Z,80.68
2018-01-12T10:15:49.414Z,80.68
2018-01-12T10:16:49.735Z,80.3
2018-01-12T10:17:49.742Z,80.58
2018-01-12T10:18:49.499Z,80.21
2018-01-12T10:19:49.469Z,80.11
2018-01-12T10:20:49.497Z,80.02
2018-01-12T10:21:49.507Z,80.11
2018-01-12T10:22:49.776Z,80.21
2018-01-12T10:23:49.500Z,79.73
2018-01-12T10:24:49.829Z,80.11
2018-01-12T10:25:49.541Z,79.92
2018-01-12T10:26:49.547Z,79.73
2018-01-12T10:27:49.876Z,79.92
2018-01-12T10:28:49.867Z,80.11
2018-01-12T10:29:49.586Z,79.92
2018-01-12T10:30:49.892Z,80.11
2018-01-12T10:31:49.630Z,80.49
2018-01-12T10:32:49.916Z,80.58
2018-01-12T10:33:49.902Z,80.58
2018-01-12T10:34:49.924Z,80.58
2018-01-12T10:35:49.658Z,80.49
2018-01-12T10:36:49.694Z,80.58
2018-01-12T10:37:49.978Z,80.49
2018-01-12T10:38:49.690Z,80.3
2018-01-12T10:39:50.004Z,80.58
2018-01-12T10:40:49.983Z,80.49
2018-01-12T10:41:50.040Z,80.68
2018-01-12T10:42:49.745Z,80.11
2018-01-12T10:43:49.768Z,80.4
2018-01-12T10:44:49.768Z,79.73
2018-01-12T10:45:49.795Z,79.73
2018-01-12T10:46:50.056Z,79.92
2018-01-12T10:47:49.797Z,80.11
2018-01-12T10:48:50.215Z,80.02
2018-01-12T10:49:50.097Z,80.21
2018-01-12T10:50:50.119Z,80.21
2018-01-12T10:51:50.129Z,80.02
2018-01-12T10:52:49.889Z,80.02
2018-01-12T10:53:49.950Z,79.73
2018-01-12T10:54:49.912Z,79.73
2018-01-12T10:55:50.216Z,79.73
2018-01-12T10:56:49.907Z,80.21
2018-01-12T10:57:49.939Z,79.73
2018-01-12T10:58:50.236Z,79.73
2018-01-12T10:59:50.231Z,79.73
2018-01-12T11:00:50.227Z,79.73
2018-01-12T11:01:50.273Z,80.02
2018-01-12T11:02:50.296Z,79.83
2018-01-12T11:03:49.991Z,80.49
2018-01-12T11:04:50.278Z,80.21
2018-01-12T11:05:50.332Z,79.92
2018-01-12T11:06:50.060Z,79.83
2018-01-12T11:07:50.042Z,79.73
2018-01-12T11:08:50.238Z,79.63
2018-01-12T11:09:50.066Z,79.83
2018-01-12T11:10:50.100Z,79.83
2018-01-12T11:11:50.113Z,79.83
2018-01-12T11:12:50.421Z,80.3
2018-01-12T11:13:50.289Z,79.92
2018-01-12T11:14:50.162Z,79.83
2018-01-12T11:15:50.469Z,79.83
2018-01-12T11:16:50.187Z,79.83
2018-01-12T11:17:50.175Z,79.63
2018-01-12T11:18:50.209Z,79.73
2018-01-12T11:19:50.477Z,79.54
2018-01-12T11:20:50.230Z,79.83
2018-01-12T11:21:50.522Z,79.54
2018-01-12T11:22:50.538Z,79.73
2018-01-12T11:23:50.522Z,79.63
2018-01-12T11:24:50.527Z,79.83
2018-01-12T11:25:50.575Z,79.92
2018-01-12T11:26:50.552Z,80.49
2018-01-12T11:27:50.312Z,80.11
2018-01-12T11:28:50.588Z,80.02
2018-01-12T11:29:50.600Z,79.73
2018-01-12T11:30:50.328Z,79.63
2018-01-12T11:31:50.371Z,79.73
2018-01-12T11:32:50.673Z,79.83
2018-01-12T11:33:50.671Z,79.83
2018-01-12T11:34:50.655Z,79.63
2018-01-12T11:35:50.392Z,79.73
2018-01-12T11:36:50.676Z,79.83
2018-01-12T11:37:50.448Z,80.02
2018-01-12T11:38:50.738Z,79.92
2018-01-12T11:39:50.758Z,80.02
2018-01-12T11:40:50.730Z,79.83
2018-01-12T11:41:50.773Z,80.02
2018-01-12T11:42:50.509Z,79.63
2018-01-12T11:43:50.553Z,79.63
2018-01-12T11:44:50.788Z,79.73
2018-01-12T11:45:50.549Z,79.92
2018-01-12T11:46:50.835Z,79.92
2018-01-12T11:47:50.823Z,80.3
2018-01-12T11:48:50.569Z,80.49
2018-01-12T11:49:50.839Z,80.49
2018-01-12T11:50:50.893Z,80.3
2018-01-12T11:51:50.611Z,80.3
2018-01-12T11:52:50.888Z,80.58
2018-01-12T11:53:50.649Z,80.63
2018-01-12T11:54:50.901Z,79.92
2018-01-12T11:55:50.660Z,79.83
2018-01-12T11:56:50.683Z,79.68
2018-01-12T11:57:50.690Z,80.02
2018-01-12T11:58:50.953Z,79.86
2018-01-12T11:59:50.691Z,79.92
2018-01-12T12:00:50.739Z,79.92
2018-01-12T12:01:50.737Z,80.05
2018-01-12T12:02:51.036Z,80.05
2018-01-12T12:03:51.053Z,79.92
2018-01-12T12:04:51.041Z,80.05
2018-01-12T12:05:51.042Z,79.92
2018-01-12T12:06:50.790Z,79.96
2018-01-12T12:07:51.086Z,80.05
2018-01-12T12:08:50.805Z,79.73
2018-01-12T12:09:51.103Z,80.05
2018-01-12T12:10:51.139Z,80.05
2018-01-12T12:11:51.162Z,79.73
2018-01-12T12:12:50.853Z,79.54
2018-01-12T12:13:51.186Z,79.77
2018-01-12T12:14:51.173Z,79.86
2018-01-12T12:15:51.204Z,79.54
2018-01-12T12:16:50.914Z,79.54
2018-01-12T12:17:50.939Z,79.68
2018-01-12T12:18:50.952Z,79.68
2018-01-12T12:19:50.960Z,79.68
2018-01-12T12:20:51.244Z,79.83
2018-01-12T12:21:50.982Z,79.54
2018-01-12T12:22:51.258Z,79.63
2018-01-12T12:23:51.008Z,79.68
2018-01-12T12:24:51.291Z,79.73
2018-01-12T12:25:51.025Z,79.73
2018-01-12T12:26:51.042Z,79.63
2018-01-12T12:27:51.330Z,79.44
2018-01-12T12:28:51.058Z,79.44
2018-01-12T12:29:51.105Z,79.35
2018-01-12T12:30:51.399Z,79.44
2018-01-12T12:31:51.383Z,79.35
2018-01-12T12:32:51.108Z,79.44
2018-01-12T12:33:51.405Z,79.35
2018-01-12T12:34:51.421Z,79.54
2018-01-12T12:35:51.145Z,79.63
2018-01-12T12:36:51.158Z,79.16
2018-01-12T12:37:51.204Z,79.25
2018-01-12T12:38:51.189Z,79.63
2018-01-12T12:39:51.483Z,79.35
2018-01-12T12:40:51.211Z,79.44
2018-01-12T12:41:51.222Z,79.63
2018-01-12T12:42:51.266Z,79.35
2018-01-12T12:43:51.532Z,79.35
2018-01-12T12:44:51.566Z,79.44
2018-01-12T12:45:51.579Z,79.25
2018-01-12T12:46:51.603Z,78.97
2018-01-12T12:47:51.323Z,79.06
2018-01-12T12:48:51.598Z,78.69
2018-01-12T12:49:51.334Z,78.78
2018-01-12T12:50:51.656Z,78.78
2018-01-12T12:51:51.658Z,79.44
2018-01-12T12:52:51.648Z,79.54
2018-01-12T12:53:51.659Z,79.54
2018-01-12T12:54:51.459Z,79.16